23 maggio 2022

Tempo Codice Tempo metereologico Temp. Vista Nuvole Vento METAR/SPECI
09:25
V
19 °C 10 km+ 10.000 ft 140°   140° 3 kt METAR EBBL 230725Z 14003KT 9999 BKN100 19/12 Q1003 BLU BLU
08:55
V
18 °C 10 km+ 10.000 ft 120°   120° 3 kt METAR EBBL 230655Z 12003KT 9999 BKN100 18/12 Q1003 BLU BLU
08:25
V
17 °C 10 km+ 10.000 ft 080°   080° 3 kt METAR EBBL 230625Z 08003KT 9999 BKN100 17/12 Q1003 BLU BLU
07:55
V
17 °C 10 km+ 10.000 ft 070°   070° 3 kt METAR EBBL 230555Z 07003KT 9999 BKN100 17/12 Q1003 BLU BLU
07:25
V
16 °C 10 km+ 10.000 ft 070°   070° 3 kt METAR EBBL 230525Z 07003KT 9999 BKN100 16/12 Q1003 BLU BLU
07:03
V
15 °C 10 km+ 10.000 ft Var   Var 2 kt METAR EBBL 230503Z VRB02KT 9999 BKN100 15/12 Q1004 BLU BLU
06:55
V
15 °C 10 km+ 10.000 ft 060°   060° 3 kt METAR EBBL 230455Z 06003KT 9999 BKN100 15/12 Q1004 BLU BLU
06:25
V
14 °C 10 km+ 10.000 ft Var   Var 2 kt METAR EBBL 230425Z AUTO VRB02KT 9999 BKN100/// BKN220/// 14/12 Q1004 BLU
05:55
V
13 °C 10 km+ - Var   Var 2 kt METAR EBBL 230355Z AUTO VRB02KT 9999 SCT100/// 13/11 Q1005 BLU
05:25
V
14 °C 10 km+ - Var   Var 1 kt METAR EBBL 230325Z AUTO VRB01KT 9999 FEW150/// 14/11 Q1005 BLU
04:55
V
15 °C 10 km+ 12.000 ft Var   Var 1 kt METAR EBBL 230255Z AUTO VRB01KT 9999 BKN120/// BKN160/// BKN190/// 15/12 Q1006 BLU
04:25
V
16 °C 10 km+ 16.000 ft Var   Var 1 kt METAR EBBL 230225Z AUTO VRB01KT 9999 BKN160/// 16/12 Q1006 BLU
03:55
V
16 °C 10 km+ 12.000 ft Var   Var 2 kt METAR EBBL 230155Z AUTO VRB02KT 9999 BKN120/// BKN160/// BKN190/// 16/12 Q1006 BLU
03:51
M
16 °C 6 km 12.000 ft Var   Var 2 kt METAR EBBL 230151Z AUTO VRB02KT 6000 BKN120/// OVC190/// 16/12 Q1006 WHT
03:25
V
16 °C 10 km+ 11.000 ft Var   Var 1 kt METAR EBBL 230125Z AUTO VRB01KT 9999 OVC110/// 16/12 Q1006 BLU
02:55
V
16 °C 10 km+ 12.000 ft Var   Var 1 kt METAR EBBL 230055Z AUTO VRB01KT 9999 BKN120/// BKN220/// 16/12 Q1007 BLU
02:25
V
17 °C 10 km+ 12.000 ft 080°   080° 4 kt METAR EBBL 230025Z AUTO 08004KT 9999 OVC120/// 17/11 Q1007 BLU
01:55
V
17 °C 10 km+ 11.000 ft 070°   070° 4 kt METAR EBBL 222355Z AUTO 07004KT 9999 OVC110/// 17/11 Q1007 BLU
01:25
V
17 °C 10 km+ 11.000 ft 080°   080° 3 kt METAR EBBL 222325Z AUTO 08003KT 9999 OVC110/// 17/11 Q1008 BLU
00:55
V
17 °C 10 km+ 10.000 ft 040°   040° 4 kt METAR EBBL 222255Z AUTO 04004KT 9999 OVC100/// 17/11 Q1008 BLU
00:25
V
18 °C 10 km+ 10.000 ft 060°   060° 4 kt METAR EBBL 222225Z AUTO 06004KT 9999 BKN100/// OVC120/// 18/10 Q1009 BLU

22 maggio 2022

Tempo Codice Tempo metereologico Temp. Vista Nuvole Vento METAR/SPECI
23:55
V
18 °C 10 km+ 9.800 ft 080°   080° 4 kt METAR EBBL 222155Z AUTO 08004KT 9999 OVC098/// 18/10 Q1009 BLU
23:25
V
17 °C 10 km+ 16.000 ft Var   Var 1 kt METAR EBBL 222125Z AUTO VRB01KT 9999 OVC160/// 17/10 Q1009 BLU
22:55
V
17 °C 10 km+ 17.000 ft Var   Var 1 kt METAR EBBL 222055Z AUTO VRB01KT 9999 OVC170/// 17/11 Q1009 BLU
22:25
V
17 °C 10 km+ 19.000 ft Var   Var 1 kt METAR EBBL 222025Z AUTO VRB01KT 9999 BKN190/// 17/09 Q1009 BLU
21:55
V
18 °C 10 km+ 19.000 ft Var   Var 1 kt METAR EBBL 221955Z AUTO VRB01KT 9999 FEW110/// BKN190/// 18/09 Q1010 BLU
21:39
L
19 °C 1,4 km 11.000 ft Var   Var 1 kt METAR EBBL 221939Z AUTO VRB01KT 1400 BKN110/// BKN180/// 19/09 Q1010 AMB
21:38
M
19 °C 7 km 11.000 ft Var   Var 1 kt METAR EBBL 221938Z AUTO VRB01KT 7000 BKN110/// BKN190/// 19/09 Q1010 WHT
21:25
V
19 °C 10 km+ 20.000 ft Var   Var 1 kt METAR EBBL 221925Z AUTO VRB01KT 9999 FEW110/// BKN200/// 19/09 Q1010 BLU
20:55
V
20 °C 10 km+ - Var   Var 2 kt METAR EBBL 221855Z AUTO VRB02KT 9999 SCT210/// SCT230/// 20/10 Q1010 BLU
20:25
V
21 °C 10 km+ - 080°   080° 3 kt METAR EBBL 221825Z AUTO 08003KT 9999 FEW220/// 21/09 Q1010 BLU
19:55
V
22 °C 10 km+ - 070°   070° 4 kt METAR EBBL 221755Z AUTO 07004KT 9999 NCD 22/08 Q1010 BLU
19:25
V
22 °C 10 km+ - Var   Var 2 kt METAR EBBL 221725Z AUTO VRB02KT 9999 FEW110/// 22/07 Q1011 BLU
18:55
V
22 °C 10 km+ 11.000 ft 090°   090° 4 kt METAR EBBL 221655Z AUTO 09004KT 9999 BKN110/// 22/06 Q1011 BLU
18:25
V
23 °C 10 km+ - 080°   080° 4 kt METAR EBBL 221625Z AUTO 08004KT 9999 NCD 23/07 Q1011 BLU
17:55
V
23 °C 10 km+ - 110°   110° 4 kt METAR EBBL 221555Z AUTO 11004KT 9999 NCD 23/08 Q1011 BLU
17:25
V
22 °C 10 km+ - 120°   120° 3 kt METAR EBBL 221525Z AUTO 12003KT 9999 NCD 22/07 Q1012 BLU
16:55
V
23 °C 10 km+ - 110°   110° 4 kt METAR EBBL 221455Z AUTO 11004KT 9999 NCD 23/07 Q1012 BLU
16:25
V
22 °C 10 km+ - 060°   060° 6 kt METAR EBBL 221425Z AUTO 06006KT 9999 NCD 22/07 Q1013 BLU
15:55
V
22 °C 10 km+ - Var   Var 2 kt METAR EBBL 221355Z AUTO VRB02KT 9999 NCD 22/08 Q1013 BLU
15:25
V
22 °C 10 km+ - 070°   070° 5 kt METAR EBBL 221325Z AUTO 07005KT 9999 NCD 22/09 Q1013 BLU
14:55
V
22 °C 10 km+ - 080°   080° 5 kt METAR EBBL 221255Z AUTO 08005KT 9999 NCD 22/08 Q1014 BLU
14:25
V
22 °C 10 km+ - 060°   060° 5 kt METAR EBBL 221225Z AUTO 06005KT 9999 NCD 22/09 Q1014 BLU
13:55
V
20 °C 10 km+ - 070°   070° 6 kt METAR EBBL 221155Z AUTO 07006KT 9999 NCD 20/07 Q1014 BLU
13:25
V
21 °C 10 km+ - 070°   070° 5 kt METAR EBBL 221125Z AUTO 07005KT 9999 FEW045/// 21/08 Q1015 BLU
12:55
V
20 °C 10 km+ 4.400 ft 080°   080° 3 kt METAR EBBL 221055Z AUTO 08003KT 9999 BKN044/// 20/08 Q1015 BLU
12:25
V
20 °C 10 km+ 4.300 ft 180°   180° 3 kt METAR EBBL 221025Z AUTO 18003KT 9999 BKN043/// 20/08 Q1016 BLU
12:19
M
19 °C 6 km - 110°   110° 5 kt METAR EBBL 221019Z AUTO 11005KT 6000 SCT042/// 19/08 Q1016 WHT
11:55
V
20 °C 10 km+ - 150°   150° 3 kt METAR EBBL 220955Z AUTO 15003KT 9999 SCT040/// 20/09 Q1016 BLU
11:25
V
19 °C 10 km+ - 040°   040° 5 kt METAR EBBL 220925Z AUTO 04005KT 9999 NCD 19/09 Q1016 BLU
10:55
V
18 °C 10 km+ - 040°   040° 4 kt METAR EBBL 220855Z AUTO 04004KT 9999 FEW037/// 18/09 Q1016 BLU
10:25
V
18 °C 10 km+ - 070°   070° 4 kt METAR EBBL 220825Z AUTO 07004KT 9999 NCD 18/09 Q1017 BLU
09:55
V
17 °C 10 km+ - 090°   090° 3 kt METAR EBBL 220755Z AUTO 09003KT 9999 NCD 17/08 Q1017 BLU
09:25
V
18 °C 10 km+ - Var   Var 2 kt METAR EBBL 220725Z AUTO VRB02KT 9999 NCD 18/09 Q1017 BLU
08:55
V
16 °C 10 km+ - Var   Var 2 kt METAR EBBL 220655Z AUTO VRB02KT 9999 NCD 16/10 Q1017 BLU
08:25
V
15 °C 10 km+ - Var   Var 1 kt METAR EBBL 220625Z AUTO VRB01KT 9999 NCD 15/10 Q1017 BLU
07:55
V
13 °C 10 km+ - Var   Var 1 kt METAR EBBL 220555Z AUTO VRB01KT 9999 NCD 13/10 Q1017 BLU
07:25
V
11 °C 10 km+ - Var   Var 1 kt METAR EBBL 220525Z AUTO VRB01KT 9999 NCD 11/10 Q1017 BLU
07:13
V
11 °C 10 km+ - Var   000° 0 kt METAR EBBL 220513Z AUTO 00000KT 9999 NCD 11/10 Q1017 BLU
06:55
M
10 °C 7 km - Var   Var 1 kt METAR EBBL 220455Z AUTO VRB01KT 7000 NCD 10/09 Q1017 WHT
06:25
M
9 °C 5 km - Var   000° 0 kt METAR EBBL 220425Z AUTO 00000KT 5000 BR SCT043/// 09/09 Q1017 WHT
06:16
I
9 °C 3,4 km - Var   000° 0 kt METAR EBBL 220416Z AUTO 00000KT 3400 BR SCT042/// 09/08 Q1017 YLO
06:10
I
9 °C 4,4 km - Var   Var 1 kt METAR EBBL 220410Z AUTO VRB01KT 4400 SCT042/// 09/08 Q1017 GRN
05:55
V
9 °C 10 km+ - Var   000° 0 kt METAR EBBL 220355Z AUTO 00000KT 9999 FEW043/// SCT048/// 09/08 Q1017 BLU
05:25
V
9 °C 10 km+ - Var   Var 1 kt METAR EBBL 220325Z AUTO VRB01KT 9999 SCT043/// 09/09 Q1018 BLU
04:55
V
9 °C 10 km+ - Var   Var 1 kt METAR EBBL 220255Z AUTO VRB01KT 9999 FEW047/// 09/09 Q1018 BLU
04:49
M
10 °C 7 km - Var   Var 1 kt METAR EBBL 220249Z AUTO VRB01KT 7000 SCT047/// 10/09 Q1018 WHT
04:25
V
10 °C 10 km+ 4.800 ft Var   Var 1 kt METAR EBBL 220225Z AUTO VRB01KT 9999 BKN048/// 10/09 Q1018 BLU
03:55
V
9 °C 10 km+ 4.800 ft Var   Var 1 kt METAR EBBL 220155Z AUTO VRB01KT 9999 BKN048/// 09/08 Q1018 BLU
03:25
V
10 °C 10 km+ - Var   Var 1 kt METAR EBBL 220125Z AUTO VRB01KT 9999 SCT051/// 10/09 Q1019 BLU
02:55
V
10 °C 10 km+ - Var   Var 1 kt METAR EBBL 220055Z AUTO VRB01KT 9999 FEW052/// 10/10 Q1019 BLU
02:54
M
10 °C 7 km - Var   Var 1 kt METAR EBBL 220054Z AUTO VRB01KT 7000 FEW054/// 10/09 Q1019 WHT
02:25
V
10 °C 10 km+ - Var   Var 1 kt METAR EBBL 220025Z AUTO VRB01KT 9999 SCT200/// 10/09 Q1019 BLU
01:55
V
11 °C 10 km+ 20.000 ft Var   Var 1 kt METAR EBBL 212355Z AUTO VRB01KT 9999 BKN200/// 11/10 Q1019 BLU
01:25
V
11 °C 10 km+ 19.000 ft Var   000° 0 kt METAR EBBL 212325Z AUTO 00000KT 9999 FEW052/// BKN190/// 11/10 Q1019 BLU
00:55
V
12 °C 10 km+ 19.000 ft Var   Var 1 kt METAR EBBL 212255Z AUTO VRB01KT 9999 SCT049/// BKN190/// 12/10 Q1020 BLU
00:25
V
12 °C 10 km+ 14.000 ft Var   Var 1 kt METAR EBBL 212225Z AUTO VRB01KT 9999 SCT049/// BKN140/// BKN190/// 12/10 Q1020 BLU

21 maggio 2022

Tempo Codice Tempo metereologico Temp. Vista Nuvole Vento METAR/SPECI
23:55
V
12 °C 10 km+ - Var   Var 1 kt METAR EBBL 212155Z AUTO VRB01KT 9999 SCT051/// 12/10 Q1020 BLU
23:25
V
13 °C 10 km+ 5.700 ft Var   Var 1 kt METAR EBBL 212125Z AUTO VRB01KT 9999 SCT051/// BKN057/// 13/10 Q1020 BLU
22:55
V
14 °C 10 km+ 5.300 ft Var   Var 2 kt METAR EBBL 212055Z AUTO VRB02KT 9999 BKN053/// 14/10 Q1020 BLU
22:25
V
15 °C 10 km+ 5.500 ft 010°   010° 3 kt METAR EBBL 212025Z AUTO 01003KT 9999 BKN055/// 15/10 Q1020 BLU
21:55
V
16 °C 10 km+ 5.600 ft 350°   350° 4 kt METAR EBBL 211955Z AUTO 35004KT 9999 BKN056/// 16/10 Q1020 BLU
21:25
V
16 °C 10 km+ 5.400 ft 360°   360° 4 kt METAR EBBL 211925Z AUTO 36004KT 9999 BKN054/// 16/10 Q1020 BLU
20:55
V
17 °C 10 km+ 5.600 ft Var   Var 2 kt METAR EBBL 211855Z AUTO VRB02KT 9999 BKN056/// 17/08 Q1020 BLU
20:25
V
18 °C 10 km+ 5.800 ft 310°   310° 3 kt METAR EBBL 211825Z AUTO 31003KT 9999 BKN058/// BKN120/// BKN240/// 18/08 Q1020 BLU
19:55
V
18 °C 10 km+ 6.000 ft 260°   260° 3 kt METAR EBBL 211755Z AUTO 26003KT 9999 BKN060/// BKN240/// 18/07 Q1020 BLU
19:25
V
19 °C 10 km+ 14.000 ft 270°   270° 5 kt METAR EBBL 211725Z AUTO 27005KT 9999 BKN140/// BKN240/// 19/08 Q1020 BLU
18:55
V
19 °C 10 km+ 14.000 ft 270°   270° 5 kt METAR EBBL 211655Z AUTO 27005KT 9999 FEW054/// BKN140/// 19/07 Q1020 BLU
18:25
V
19 °C 10 km+ 15.000 ft 260°   260° 6 kt METAR EBBL 211625Z AUTO 26006KT 9999 BKN150/// 19/07 Q1020 BLU
17:55
V
19 °C 10 km+ 14.000 ft 250°   250° 8 kt METAR EBBL 211555Z AUTO 25008KT 9999 FEW061/// BKN140/// 19/07 Q1020 BLU
17:25
V
19 °C 10 km+ 15.000 ft 260°   260° 8 kt METAR EBBL 211525Z AUTO 26008KT 9999 FEW056/// BKN150/// 19/07 Q1021 BLU
16:55
V
20 °C 10 km+ 15.000 ft 250°   250° 8 kt METAR EBBL 211455Z AUTO 25008KT 9999 FEW060/// BKN150/// 20/07 Q1021 BLU
16:25
V
19 °C 10 km+ 5.000 ft 250°   250° 11 kt METAR EBBL 211425Z AUTO 25011KT 9999 BKN050/// BKN160/// 19/07 Q1021 BLU
15:55
V
20 °C 10 km+ 16.000 ft 240°   240° 8 kt METAR EBBL 211355Z AUTO 24008KT 9999 SCT049/// BKN160/// 20/08 Q1021 BLU
15:25
V
20 °C 10 km+ 4.600 ft 280°   280° 7 kt METAR EBBL 211325Z AUTO 28007KT 9999 BKN046/// BKN160/// 20/09 Q1021 BLU
14:55
V
19 °C 10 km+ 4.600 ft 250°   250° 8 kt METAR EBBL 211255Z AUTO 25008KT 9999 BKN046/// BKN180/// 19/07 Q1022 BLU
14:25
V
20 °C 10 km+ 5.900 ft 230°   230° 12 kt METAR EBBL 211225Z AUTO 23012KT 9999 SCT047/// BKN059/// 20/09 Q1022 BLU
13:55
V
20 °C 10 km+ 4.100 ft 260°   260° 10 kt METAR EBBL 211155Z AUTO 26010KT 9999 BKN041/// BKN220/// 20/09 Q1022 BLU
13:25
V
19 °C 10 km+ 18.000 ft 260°   260° 11 kt METAR EBBL 211125Z AUTO 26011KT 9999 SCT038/// BKN180/// 19/09 Q1022 BLU
12:55
V
18 °C 10 km+ - 250°   250° 11 kt METAR EBBL 211055Z AUTO 25011KT 9999 FEW036/// SCT055/// 18/08 Q1022 BLU
12:25
V
17 °C 10 km+ 4.700 ft 240°   240° 11 kt METAR EBBL 211025Z AUTO 24011KT 9999 SCT032/// BKN047/// 17/09 Q1022 BLU
11:55
M
17 °C 10 km+ 2.900 ft 240°   240° 10 kt METAR EBBL 210955Z AUTO 24010KT 9999 BKN029/// 17/10 Q1022 BLU
11:25
V
17 °C 10 km+ - 260°   260° 11 kt METAR EBBL 210925Z AUTO 26011KT 9999 FEW026/// SCT029/// 17/09 Q1022 BLU
11:20
V
17 °C 10 km+ - 250°   250° 12 kt METAR EBBL 210920Z AUTO 25012KT 9999 FEW025/// 17/10 Q1022 BLU
10:55
V
16 °C 10 km+ - 260°   260° 11 kt METAR EBBL 210855Z AUTO 26011KT 9999 SCT024/// 16/10 Q1022 WHT
10:25
M
15 °C 10 km+ 2.300 ft 240°   240° 13 kt METAR EBBL 210825Z AUTO 24013KT 9999 BKN023/// 15/10 Q1022 WHT
09:55
M
14 °C 10 km+ 1.900 ft 250°   250° 12 kt METAR EBBL 210755Z AUTO 25012KT 9999 BKN019/// 14/10 Q1022 WHT
09:25
M
14 °C 10 km+ 1.500 ft 240°   240° 13 kt METAR EBBL 210725Z AUTO 24013KT 9999 BKN015/// 14/10 Q1022 WHT
09:13
M
13 °C 10 km+ 1.500 ft 250°   250° 11 kt METAR EBBL 210713Z AUTO 25011KT 9999 BKN015/// 13/10 Q1021 WHT
08:55
M
14 °C 10 km+ 1.400 ft 240°   240° 13 kt METAR EBBL 210655Z AUTO 24013KT 9999 BKN014/// 14/10 Q1021 GRN
Dati più vecchi

Scarica la nostra applicazione

Facile accesso a tutte le previsioni dell'aviazione sul tuo cellulare e tablet.
Con molte caratteristiche non disponibili sul sito web, come il supporto offline e una lista personale di aeroporti.

Noi e le terze parti seguiamo il tuo comportamento in internet sul nostro sito web con i cookie. Se continui, riteniamo che tu sia d'accordo con la nostra politica sui cookie. Per saperne di più